Time;durP1;ratioP1;P1;durP2;ratioP2;P2;SDS_P1;SDS_P2;PMS_P1;PMS_P2;Temp;Humidity;BMP_temperature;BMP_pressure;BME280_temperature;BME280_humidity;BME280_pressure;Samples;Min_cycle;Max_cycle;Signal;HPM_P1;HPM_P2
2021/12/25 00:00:19;;;;;;;1.48;0.70;;;10.20;99.90;;;;;;5134765;27;20031;-68
2021/12/25 00:02:45;;;;;;;1.05;0.70;;;10.20;99.90;;;;;;5135904;27;20020;-69
2021/12/25 00:05:12;;;;;;;0.70;0.70;;;10.20;99.90;;;;;;5135528;27;20024;-69
2021/12/25 00:07:38;;;;;;;0.47;0.47;;;10.20;99.90;;;;;;5134889;27;20456;-69
2021/12/25 00:10:05;;;;;;;0.95;0.82;;;10.20;99.90;;;;;;5135139;27;20036;-69
2021/12/25 00:12:32;;;;;;;1.33;0.70;;;10.20;99.90;;;;;;5134783;27;20027;-69
2021/12/25 00:14:58;;;;;;;0.82;0.60;;;10.20;99.90;;;;;;5135353;27;20034;-69
2021/12/25 00:17:26;;;;;;;0.55;0.50;;;10.20;99.90;;;;;;5134791;27;20099;-69
2021/12/25 00:19:52;;;;;;;0.55;0.50;;;10.10;99.90;;;;;;5135224;27;20043;-69
2021/12/25 00:22:19;;;;;;;2.03;0.80;;;10.10;99.90;;;;;;5134718;27;20027;-68
2021/12/25 00:24:45;;;;;;;0.68;0.50;;;10.10;99.90;;;;;;5135235;27;20371;-69
2021/12/25 00:27:37;;;;;;;1.10;0.60;;;10.10;99.90;;;;;;5124512;27;20031;-69
2021/12/25 00:30:14;;;;;;;0.70;0.60;;;10.10;99.90;;;;;;5113032;28;20067;-68
2021/12/25 00:35:37;;;;;;;1.40;0.77;;;10.10;99.90;;;;;;5068306;28;20032;-67
2021/12/25 00:38:05;;;;;;;0.82;0.60;;;10.00;99.90;;;;;;5113046;28;20034;-69
2021/12/25 00:40:30;;;;;;;0.95;0.75;;;10.00;99.90;;;;;;5113526;28;20435;-68
2021/12/25 00:42:56;;;;;;;0.70;0.50;;;10.00;99.90;;;;;;5114342;28;20103;-68
2021/12/25 00:45:22;;;;;;;0.50;0.50;;;9.90;99.90;;;;;;5113138;28;20051;-68
2021/12/25 00:47:47;;;;;;;1.83;0.60;;;9.90;99.90;;;;;;5095906;28;20440;-68
2021/12/25 00:50:13;;;;;;;1.10;0.80;;;9.90;99.90;;;;;;5114091;28;20039;-68
2021/12/25 00:52:39;;;;;;;1.73;0.80;;;9.90;99.90;;;;;;5113504;28;20039;-70
2021/12/25 00:55:07;;;;;;;0.80;0.77;;;9.80;99.90;;;;;;5114194;28;20027;-70
2021/12/25 00:57:32;;;;;;;0.88;0.77;;;9.80;99.90;;;;;;5113589;28;20117;-70
2021/12/25 00:59:58;;;;;;;1.10;0.75;;;9.70;99.90;;;;;;5114021;28;20456;-69
2021/12/25 01:02:24;;;;;;;0.73;0.70;;;9.80;99.90;;;;;;5113241;28;20448;-68
2021/12/25 01:04:49;;;;;;;0.85;0.60;;;9.70;99.90;;;;;;5113579;28;20111;-69
2021/12/25 01:07:15;;;;;;;2.33;0.70;;;9.70;99.90;;;;;;5113774;28;20023;-70
2021/12/25 01:09:41;;;;;;;3.38;0.73;;;9.70;99.90;;;;;;5113058;28;20665;-69
2021/12/25 01:12:07;;;;;;;0.85;0.57;;;9.70;99.90;;;;;;5113704;28;20024;-70
2021/12/25 01:14:48;;;;;;;1.02;0.70;;;9.70;99.90;;;;;;5124494;27;20049;-70
2021/12/25 01:30:45;;;;;;;1.58;0.73;;;9.70;99.90;;;;;;5076153;27;20043;-69
2021/12/25 01:36:11;;;;;;;1.65;0.70;;;9.60;99.90;;;;;;5133118;27;20472;-69
2021/12/25 01:41:14;;;;;;;1.27;0.75;;;9.60;99.90;;;;;;5133680;27;20034;-71
2021/12/25 01:49:08;;;;;;;1.73;0.98;;;9.60;99.90;;;;;;5133172;27;20383;-69
2021/12/25 01:51:34;;;;;;;2.72;1.40;;;9.60;99.90;;;;;;5132795;27;20031;-69
2021/12/25 01:53:59;;;;;;;2.22;1.38;;;9.60;99.90;;;;;;5133416;27;20019;-70
2021/12/25 01:56:25;;;;;;;2.10;1.35;;;9.60;99.90;;;;;;5132431;27;20109;-68
2021/12/25 01:58:51;;;;;;;1.45;1.10;;;9.60;99.90;;;;;;5133407;27;20088;-69
2021/12/25 02:01:18;;;;;;;1.42;1.02;;;9.60;99.90;;;;;;5133278;27;20035;-70
2021/12/25 02:03:44;;;;;;;2.15;0.93;;;9.60;99.90;;;;;;5132322;27;20027;-69
2021/12/25 02:06:11;;;;;;;1.38;0.93;;;9.60;99.90;;;;;;5133569;27;20473;-68
2021/12/25 02:08:39;;;;;;;1.40;1.00;;;9.60;99.90;;;;;;5132462;27;20065;-69
2021/12/25 02:11:06;;;;;;;1.20;0.82;;;9.60;99.90;;;;;;5132863;27;20507;-69
2021/12/25 02:13:32;;;;;;;1.05;0.95;;;9.60;99.90;;;;;;5132754;27;20027;-69
2021/12/25 02:15:59;;;;;;;1.13;0.93;;;9.60;99.90;;;;;;5132984;27;20364;-70
2021/12/25 02:21:02;;;;;;;0.93;0.85;;;9.60;99.90;;;;;;5112327;28;20033;-69
2021/12/25 02:23:31;;;;;;;0.82;0.77;;;9.50;99.90;;;;;;5111885;28;20148;-68
2021/12/25 02:25:58;;;;;;;2.45;1.10;;;9.50;99.90;;;;;;5112296;28;20019;-69
2021/12/25 02:28:25;;;;;;;1.80;0.80;;;9.50;99.90;;;;;;5112209;28;20044;-70
2021/12/25 02:30:55;;;;;;;0.95;0.70;;;9.50;99.90;;;;;;5111597;28;20035;-70
2021/12/25 02:33:21;;;;;;;2.72;1.13;;;9.50;99.90;;;;;;5112302;28;20024;-70
2021/12/25 02:35:47;;;;;;;2.45;1.20;;;9.50;99.90;;;;;;5093341;28;20031;-69
2021/12/25 02:38:13;;;;;;;1.95;1.27;;;9.50;99.90;;;;;;5112146;28;20024;-70
2021/12/25 02:40:39;;;;;;;1.63;0.90;;;9.50;99.90;;;;;;5111515;28;20119;-69
2021/12/25 02:43:05;;;;;;;1.50;1.20;;;9.50;99.90;;;;;;5112134;28;20484;-69
2021/12/25 02:45:31;;;;;;;1.00;0.90;;;9.50;99.90;;;;;;5111356;28;20131;-68
2021/12/25 02:48:04;;;;;;;1.73;0.98;;;9.50;99.90;;;;;;5112036;28;20107;-69
2021/12/25 02:50:32;;;;;;;2.30;0.90;;;9.50;99.90;;;;;;5111524;28;20111;-68
2021/12/25 02:52:59;;;;;;;2.13;0.90;;;9.50;99.90;;;;;;5112048;28;20069;-70
2021/12/25 02:55:26;;;;;;;2.28;0.90;;;9.50;99.90;;;;;;5112098;28;20031;-69
2021/12/25 02:57:52;;;;;;;1.95;1.08;;;9.50;99.90;;;;;;5111397;28;20038;-69
2021/12/25 03:00:24;;;;;;;1.20;1.00;;;9.50;99.90;;;;;;5112015;28;20037;-70
2021/12/25 03:02:50;;;;;;;1.70;1.10;;;9.50;99.90;;;;;;5113871;28;20311;-69
2021/12/25 03:05:15;;;;;;;1.00;0.88;;;9.40;99.90;;;;;;5130886;27;20069;-69
2021/12/25 03:07:42;;;;;;;2.67;0.90;;;9.40;99.90;;;;;;5136035;27;20019;-69
2021/12/25 03:10:09;;;;;;;1.20;1.10;;;9.40;99.90;;;;;;5136455;27;20034;-69
2021/12/25 03:12:46;;;;;;;1.88;1.10;;;9.40;99.90;;;;;;5135677;27;20436;-68
2021/12/25 03:15:16;;;;;;;1.23;1.05;;;9.40;99.90;;;;;;5136614;27;20034;-69
2021/12/25 03:17:43;;;;;;;1.02;1.00;;;9.40;99.90;;;;;;5135995;27;20043;-69
2021/12/25 03:20:10;;;;;;;2.72;1.30;;;9.40;99.90;;;;;;5136422;27;20027;-69
2021/12/25 03:22:38;;;;;;;1.77;1.17;;;9.40;99.90;;;;;;5117237;27;20030;-68
2021/12/25 03:25:09;;;;;;;1.10;1.05;;;9.40;99.90;;;;;;5135857;27;20027;-69
2021/12/25 03:27:38;;;;;;;2.85;1.60;;;9.40;99.90;;;;;;5135637;27;20042;-68
2021/12/25 03:30:05;;;;;;;1.70;1.60;;;9.40;99.90;;;;;;5117827;27;20394;-69
2021/12/25 03:32:31;;;;;;;2.60;1.42;;;9.40;99.90;;;;;;5136130;27;20102;-69
2021/12/25 03:34:57;;;;;;;2.47;1.23;;;9.40;99.90;;;;;;5136125;27;20110;-70
2021/12/25 03:37:22;;;;;;;1.55;1.33;;;9.40;99.90;;;;;;5136265;27;20489;-70
2021/12/25 03:39:48;;;;;;;2.42;1.35;;;9.30;99.90;;;;;;5135702;27;20031;-68
2021/12/25 03:42:14;;;;;;;2.35;1.30;;;9.30;99.90;;;;;;5136032;27;20508;-69
2021/12/25 03:44:39;;;;;;;1.55;1.27;;;9.30;99.90;;;;;;5135224;27;20023;-70
2021/12/25 03:47:40;;;;;;;2.03;1.30;;;9.30;99.90;;;;;;5136217;27;20039;-70
2021/12/25 03:58:15;;;;;;;1.60;1.50;;;9.30;99.90;;;;;;5135826;27;20034;-69
2021/12/25 04:00:43;;;;;;;2.53;1.60;;;9.30;99.90;;;;;;5135120;27;20114;-69
2021/12/25 04:03:17;;;;;;;1.80;1.60;;;9.40;99.90;;;;;;5135541;27;20049;-69
2021/12/25 04:05:45;;;;;;;3.45;2.08;;;9.30;99.90;;;;;;5134970;27;20023;-69
2021/12/25 04:08:14;;;;;;;2.53;1.77;;;9.40;99.90;;;;;;5135486;27;20019;-70
2021/12/25 04:10:43;;;;;;;2.53;1.73;;;9.40;99.90;;;;;;5134787;27;20122;-69
2021/12/25 04:13:14;;;;;;;2.20;1.70;;;9.40;99.90;;;;;;5134941;27;20031;-69
2021/12/25 04:15:41;;;;;;;2.50;2.00;;;9.40;99.90;;;;;;5131353;27;20076;-70
2021/12/25 04:18:07;;;;;;;1.95;1.77;;;9.40;99.90;;;;;;5135345;27;20333;-69
2021/12/25 04:20:33;;;;;;;2.60;2.22;;;9.40;99.90;;;;;;5135242;27;20035;-70
2021/12/25 04:23:09;;;;;;;2.47;1.90;;;9.40;99.90;;;;;;5134649;27;20432;-69
2021/12/25 04:25:36;;;;;;;3.40;2.20;;;9.40;99.90;;;;;;5135297;27;20027;-70
2021/12/25 04:28:13;;;;;;;2.53;2.10;;;9.40;99.90;;;;;;5134789;27;20055;-69
2021/12/25 05:05:34;;;;;;;0.77;0.77;;;9.40;99.90;;;;;;5134478;27;20023;-69
2021/12/25 05:08:00;;;;;;;1.65;0.90;;;9.40;99.90;;;;;;5133560;27;20027;-68
2021/12/25 05:10:26;;;;;;;1.10;1.00;;;9.40;99.90;;;;;;5133777;27;20034;-69
2021/12/25 05:12:51;;;;;;;1.08;0.85;;;9.40;99.90;;;;;;5115315;27;20088;-69
2021/12/25 05:15:17;;;;;;;0.88;0.80;;;9.40;99.90;;;;;;5134188;27;20102;-70
2021/12/25 05:17:43;;;;;;;1.02;0.80;;;9.50;99.90;;;;;;5133310;27;20054;-69
2021/12/25 05:20:09;;;;;;;1.10;1.00;;;9.40;99.90;;;;;;5134164;27;20027;-69
2021/12/25 05:22:35;;;;;;;0.73;0.73;;;9.40;99.90;;;;;;5134054;27;20378;-69
2021/12/25 05:25:02;;;;;;;1.63;0.88;;;9.40;99.90;;;;;;5132634;27;20076;-68
2021/12/25 05:27:28;;;;;;;1.20;1.10;;;9.50;99.90;;;;;;5133913;27;20103;-69
2021/12/25 05:29:53;;;;;;;1.48;1.10;;;9.50;99.90;;;;;;5133282;27;20080;-68
2021/12/25 05:32:20;;;;;;;2.28;1.02;;;9.50;99.90;;;;;;5133844;27;20027;-69
2021/12/25 05:34:45;;;;;;;1.35;0.98;;;9.50;99.90;;;;;;5133618;27;20084;-68
2021/12/25 05:37:11;;;;;;;0.90;0.90;;;9.50;99.90;;;;;;5133778;27;20031;-69
2021/12/25 05:39:39;;;;;;;0.82;0.80;;;9.40;99.90;;;;;;5133420;27;20031;-69
2021/12/25 05:42:05;;;;;;;0.90;0.90;;;9.40;99.90;;;;;;5132953;27;20031;-69
2021/12/25 05:44:31;;;;;;;1.48;0.88;;;9.50;99.90;;;;;;5133685;27;20026;-70
2021/12/25 05:46:56;;;;;;;0.95;0.90;;;9.40;99.90;;;;;;5132528;27;20047;-69
2021/12/25 05:49:24;;;;;;;1.55;1.08;;;9.40;99.90;;;;;;5133908;27;20521;-70
2021/12/25 05:51:50;;;;;;;0.90;0.90;;;9.40;99.90;;;;;;5132925;27;20027;-69
2021/12/25 05:54:16;;;;;;;1.10;1.00;;;9.40;99.90;;;;;;5133409;27;20076;-69
2021/12/25 05:56:41;;;;;;;1.08;0.80;;;9.40;99.90;;;;;;5133162;27;20096;-70
2021/12/25 05:59:07;;;;;;;2.42;1.50;;;9.40;99.90;;;;;;5133419;27;20519;-69
2021/12/25 06:01:33;;;;;;;2.08;1.00;;;9.40;99.90;;;;;;5132834;27;20429;-69
2021/12/25 06:03:58;;;;;;;1.10;1.05;;;9.40;99.90;;;;;;5129955;27;20110;-69
2021/12/25 06:06:24;;;;;;;1.30;1.20;;;9.40;99.90;;;;;;5132492;27;20023;-69
2021/12/25 06:08:51;;;;;;;1.40;1.27;;;9.40;99.90;;;;;;5132157;27;20019;-70
2021/12/25 06:11:17;;;;;;;1.63;1.30;;;9.40;99.90;;;;;;5130938;27;20451;-70
2021/12/25 06:13:55;;;;;;;3.40;1.30;;;9.40;99.90;;;;;;5129997;27;20033;-68
2021/12/25 06:16:21;;;;;;;1.60;1.50;;;9.40;99.90;;;;;;5132413;27;20028;-69
2021/12/25 06:18:47;;;;;;;1.60;1.50;;;9.40;99.90;;;;;;5132243;27;20030;-69
2021/12/25 06:21:13;;;;;;;1.50;1.40;;;9.40;99.90;;;;;;5133062;27;20023;-69
2021/12/25 06:23:39;;;;;;;1.50;1.40;;;9.40;99.90;;;;;;5133055;27;20055;-69
2021/12/25 06:26:04;;;;;;;2.00;1.80;;;9.40;99.90;;;;;;5131712;27;20368;-69
2021/12/25 06:28:30;;;;;;;2.42;1.70;;;9.40;99.90;;;;;;5132812;27;20129;-70
2021/12/25 06:30:56;;;;;;;3.03;2.35;;;9.40;99.90;;;;;;5132361;27;20034;-70
2021/12/25 06:33:22;;;;;;;2.28;2.00;;;9.40;99.90;;;;;;5132823;27;20023;-70
2021/12/25 06:35:47;;;;;;;2.97;2.67;;;9.40;99.90;;;;;;5131938;27;20039;-67
2021/12/25 06:38:13;;;;;;;3.45;3.13;;;9.40;99.90;;;;;;5132951;27;20430;-70
2021/12/25 06:40:39;;;;;;;4.20;3.65;;;9.30;99.90;;;;;;5132695;27;20471;-69
2021/12/25 06:43:05;;;;;;;5.10;4.60;;;9.40;99.90;;;;;;5131586;28;20570;-69
2021/12/25 06:45:31;;;;;;;6.13;5.53;;;9.30;99.90;;;;;;5132480;27;20050;-69
2021/12/25 06:47:57;;;;;;;6.10;5.60;;;9.30;99.90;;;;;;5131974;28;20023;-70
2021/12/25 06:50:23;;;;;;;6.15;5.55;;;9.20;99.90;;;;;;5129872;28;20035;-70
2021/12/25 06:52:48;;;;;;;5.50;4.97;;;9.10;99.90;;;;;;5131962;28;20024;-69
2021/12/25 06:55:14;;;;;;;6.43;5.30;;;9.10;99.90;;;;;;5132608;28;20030;-69
2021/12/25 06:58:00;;;;;;;5.65;4.85;;;9.00;99.90;;;;;;5132446;28;20031;-69
2021/12/25 07:00:27;;;;;;;5.43;4.43;;;8.90;99.90;;;;;;5132619;28;20368;-70
2021/12/25 07:02:55;;;;;;;5.68;4.65;;;8.80;99.90;;;;;;5131731;28;20035;-68
2021/12/25 07:05:21;;;;;;;4.72;4.00;;;8.70;99.90;;;;;;5132668;28;20464;-68
2021/12/25 07:07:47;;;;;;;6.95;5.03;;;8.70;99.90;;;;;;5131551;28;20023;-68
2021/12/25 07:10:13;;;;;;;7.47;5.20;;;8.60;99.90;;;;;;5131648;28;20382;-68
2021/12/25 07:12:43;;;;;;;7.78;5.50;;;8.50;99.90;;;;;;5132168;28;20088;-69
2021/12/25 07:15:09;;;;;;;8.52;4.68;;;8.50;99.90;;;;;;5131691;28;20027;-70
2021/12/25 07:17:35;;;;;;;5.10;4.30;;;8.40;99.90;;;;;;5132213;28;20103;-69
2021/12/25 07:20:01;;;;;;;6.95;5.05;;;8.30;99.90;;;;;;5131881;28;20063;-69
2021/12/25 07:22:27;;;;;;;6.00;5.13;;;8.30;99.90;;;;;;5132177;28;20027;-69
2021/12/25 07:24:52;;;;;;;6.20;4.88;;;8.30;99.90;;;;;;5131706;28;20061;-69
2021/12/25 07:27:18;;;;;;;5.75;4.63;;;8.20;99.90;;;;;;5132416;28;20046;-69
2021/12/25 07:29:44;;;;;;;6.22;5.10;;;8.10;99.90;;;;;;5132450;28;20027;-70
2021/12/25 07:32:09;;;;;;;6.40;5.22;;;8.10;99.90;;;;;;5131734;28;20098;-70
2021/12/25 07:34:54;;;;;;;6.50;4.82;;;8.10;99.90;;;;;;5132176;28;20027;-69
2021/12/25 07:37:20;;;;;;;6.93;4.72;;;8.00;99.90;;;;;;5132242;28;20024;-69
2021/12/25 07:39:45;;;;;;;5.18;4.45;;;8.00;99.90;;;;;;5132498;28;20034;-69
2021/12/25 07:42:12;;;;;;;6.45;5.18;;;7.90;99.90;;;;;;5112765;28;20155;-69
2021/12/25 07:44:38;;;;;;;6.47;4.80;;;7.90;99.90;;;;;;5131911;28;20394;-69
2021/12/25 07:47:09;;;;;;;6.93;4.63;;;7.90;99.90;;;;;;5131499;27;20100;-69
2021/12/25 07:49:34;;;;;;;6.68;5.18;;;7.80;99.90;;;;;;5135798;27;20019;-69
2021/12/25 07:52:00;;;;;;;6.75;5.30;;;7.80;99.90;;;;;;5135192;27;20049;-69
2021/12/25 07:54:26;;;;;;;5.30;4.80;;;7.70;99.90;;;;;;5135795;27;20463;-69
2021/12/25 07:56:51;;;;;;;5.78;4.70;;;7.70;99.90;;;;;;5135140;27;20023;-66
2021/12/25 07:59:17;;;;;;;6.32;5.28;;;7.70;99.90;;;;;;5135721;27;20027;-68
2021/12/25 08:01:43;;;;;;;6.97;5.43;;;7.70;99.90;;;;;;5135623;27;20034;-68
2021/12/25 08:04:10;;;;;;;7.85;5.68;;;7.60;99.90;;;;;;5134760;27;20095;-69
2021/12/25 08:06:36;;;;;;;6.68;5.85;;;7.60;99.90;;;;;;5133074;27;20023;-69
2021/12/25 08:09:04;;;;;;;5.88;5.28;;;7.60;99.90;;;;;;5133737;27;20034;-68
2021/12/25 08:11:30;;;;;;;6.80;6.10;;;7.60;99.90;;;;;;5134527;27;20034;-68
2021/12/25 08:13:56;;;;;;;7.80;6.43;;;7.50;99.90;;;;;;5133610;27;20518;-68
2021/12/25 08:16:22;;;;;;;6.72;6.03;;;7.50;99.90;;;;;;5134595;27;20023;-68
2021/12/25 08:18:48;;;;;;;7.53;6.25;;;7.40;99.90;;;;;;5134242;27;20019;-69
2021/12/25 08:21:14;;;;;;;10.57;6.07;;;7.40;99.90;;;;;;5134717;27;20413;-69
2021/12/25 08:23:40;;;;;;;8.27;6.88;;;7.40;99.90;;;;;;5134859;27;20058;-69
2021/12/25 08:26:08;;;;;;;10.52;7.32;;;7.30;99.90;;;;;;5131533;27;20498;-69
2021/12/25 08:28:34;;;;;;;7.53;6.70;;;7.30;99.90;;;;;;5134637;27;20447;-69
2021/12/25 08:31:00;;;;;;;8.18;7.38;;;7.20;99.90;;;;;;5133979;27;20028;-69
2021/12/25 08:33:26;;;;;;;8.68;7.30;;;7.20;99.90;;;;;;5135134;27;20483;-70
2021/12/25 08:35:52;;;;;;;9.10;7.40;;;7.20;99.90;;;;;;5134416;27;20069;-69
2021/12/25 08:38:17;;;;;;;10.13;7.65;;;7.20;99.90;;;;;;5131943;27;20525;-69
2021/12/25 08:40:44;;;;;;;8.75;7.47;;;7.20;99.90;;;;;;5134099;27;20068;-69
2021/12/25 08:43:10;;;;;;;9.90;8.20;;;7.20;99.90;;;;;;5133981;27;20045;-70
2021/12/25 08:45:46;;;;;;;9.48;7.93;;;7.10;99.90;;;;;;5134502;27;20118;-69
2021/12/25 08:48:23;;;;;;;8.98;7.97;;;7.10;99.90;;;;;;5129848;27;20027;-69
2021/12/25 08:50:54;;;;;;;9.20;8.20;;;7.10;99.90;;;;;;5132725;27;20027;-69
2021/12/25 08:53:22;;;;;;;8.77;7.67;;;7.10;99.90;;;;;;5134513;27;20029;-69
2021/12/25 08:55:49;;;;;;;9.45;8.45;;;7.10;99.90;;;;;;5134017;27;20023;-69
2021/12/25 08:58:16;;;;;;;9.30;8.30;;;7.10;99.90;;;;;;5134366;27;20113;-70
2021/12/25 09:00:42;;;;;;;8.88;7.85;;;7.00;99.90;;;;;;5133285;27;20023;-68
2021/12/25 09:03:09;;;;;;;9.10;8.20;;;7.00;99.90;;;;;;5133693;27;20023;-69
2021/12/25 09:05:35;;;;;;;12.02;8.13;;;7.00;99.90;;;;;;5134642;27;20031;-69
2021/12/25 09:08:01;;;;;;;10.77;8.88;;;6.90;99.90;;;;;;5114970;27;20023;-68
2021/12/25 09:10:28;;;;;;;9.38;8.35;;;6.90;99.90;;;;;;5134222;27;20062;-69
2021/12/25 09:12:58;;;;;;;10.95;8.77;;;6.90;99.90;;;;;;5115554;27;20504;-68
2021/12/25 09:15:24;;;;;;;9.90;8.52;;;6.90;99.90;;;;;;5134335;27;20027;-69
2021/12/25 09:17:51;;;;;;;9.45;8.45;;;6.80;99.90;;;;;;5134540;27;20086;-69
2021/12/25 09:20:19;;;;;;;8.85;7.57;;;6.70;99.90;;;;;;5130510;27;20027;-69
2021/12/25 09:22:46;;;;;;;9.73;7.43;;;6.70;99.90;;;;;;5134074;27;20102;-69
2021/12/25 09:25:12;;;;;;;8.52;7.60;;;6.70;99.90;;;;;;5133486;27;20023;-68
2021/12/25 09:27:38;;;;;;;8.50;7.38;;;6.60;99.90;;;;;;5131778;27;20031;-69
2021/12/25 09:30:05;;;;;;;9.32;7.65;;;6.60;99.90;;;;;;5132956;27;20049;-69
2021/12/25 09:32:30;;;;;;;8.18;7.38;;;6.60;99.90;;;;;;5133560;27;20051;-70
2021/12/25 09:35:00;;;;;;;9.50;8.10;;;6.50;99.90;;;;;;5132932;27;20050;-69
2021/12/25 09:37:30;;;;;;;9.38;7.57;;;6.50;99.90;;;;;;5133762;27;20024;-70
2021/12/25 09:39:56;;;;;;;8.85;7.30;;;6.50;99.90;;;;;;5133454;27;20045;-68
2021/12/25 09:42:24;;;;;;;7.65;6.93;;;6.50;99.90;;;;;;5133715;27;20142;-69
2021/12/25 09:44:54;;;;;;;8.57;7.15;;;6.40;99.90;;;;;;5133063;27;20443;-68
2021/12/25 09:47:20;;;;;;;7.40;6.60;;;6.40;99.90;;;;;;5134035;27;20034;-69
2021/12/25 09:49:46;;;;;;;9.15;6.20;;;6.40;99.90;;;;;;5134213;27;20043;-70
2021/12/25 09:52:12;;;;;;;6.47;5.88;;;6.40;99.90;;;;;;5112286;28;20081;-69
2021/12/25 09:54:38;;;;;;;6.78;6.07;;;6.30;99.90;;;;;;5112573;28;20019;-69
2021/12/25 09:57:06;;;;;;;6.32;5.70;;;6.30;99.90;;;;;;5111797;28;20027;-69
2021/12/25 09:59:32;;;;;;;6.25;5.65;;;6.20;99.90;;;;;;5112519;28;20482;-69
2021/12/25 10:02:00;;;;;;;7.82;6.07;;;6.10;99.90;;;;;;5112113;28;20051;-69
2021/12/25 10:04:41;;;;;;;6.85;6.15;;;6.10;99.90;;;;;;5112697;28;20075;-69
2021/12/25 10:07:13;;;;;;;6.30;5.57;;;6.10;99.90;;;;;;5093964;28;20024;-68
2021/12/25 10:09:39;;;;;;;6.53;5.55;;;6.00;99.90;;;;;;5114957;27;20404;-68
2021/12/25 10:12:12;;;;;;;6.40;5.10;;;6.00;99.90;;;;;;5111858;28;20057;-68
2021/12/25 10:14:40;;;;;;;6.38;5.78;;;6.00;99.90;;;;;;5112767;28;20479;-69
2021/12/25 10:17:18;;;;;;;6.45;5.85;;;6.00;99.90;;;;;;5112023;28;20076;-68
2021/12/25 10:20:01;;;;;;;7.95;6.28;;;6.00;99.90;;;;;;5112910;28;20020;-68
2021/12/25 10:22:26;;;;;;;8.75;6.30;;;6.00;99.90;;;;;;5112829;28;20027;-68
2021/12/25 10:25:28;;;;;;;5.78;5.18;;;5.90;99.90;;;;;;5112611;28;20024;-68
2021/12/25 10:27:57;;;;;;;7.95;5.85;;;5.90;99.90;;;;;;5079902;28;20039;-68
2021/12/25 10:30:23;;;;;;;10.18;5.75;;;5.90;99.90;;;;;;5112322;28;20062;-68
2021/12/25 10:32:50;;;;;;;6.38;5.70;;;5.90;99.90;;;;;;5112127;28;20048;-68
2021/12/25 10:35:25;;;;;;;5.90;5.30;;;5.90;99.90;;;;;;5111776;28;20502;-68
2021/12/25 10:37:52;;;;;;;7.03;5.57;;;5.90;99.90;;;;;;5112463;28;20372;-69
2021/12/25 10:40:25;;;;;;;5.93;4.97;;;5.80;99.90;;;;;;5111878;28;20069;-69
2021/12/25 10:42:51;;;;;;;5.45;4.78;;;5.80;99.90;;;;;;5112293;28;20035;-69
2021/12/25 10:45:17;;;;;;;6.72;5.15;;;5.80;99.90;;;;;;5111580;28;20047;-70
2021/12/25 10:47:42;;;;;;;9.38;5.90;;;5.80;99.90;;;;;;5112085;28;20107;-70
2021/12/25 10:50:14;;;;;;;5.63;5.10;;;5.80;99.90;;;;;;5111368;28;20035;-69
2021/12/25 10:52:46;;;;;;;6.60;5.95;;;5.80;99.90;;;;;;5112540;28;20028;-68
2021/12/25 10:55:24;;;;;;;5.93;5.43;;;5.80;99.90;;;;;;5111722;28;20360;-69
2021/12/25 10:57:56;;;;;;;6.07;5.22;;;5.80;99.90;;;;;;5112234;28;20053;-69
2021/12/25 11:00:22;;;;;;;5.95;5.35;;;5.80;99.90;;;;;;5111550;28;20055;-69
2021/12/25 11:02:55;;;;;;;6.70;5.45;;;5.70;99.90;;;;;;5112173;28;20035;-69
2021/12/25 11:05:30;;;;;;;5.57;5.07;;;5.80;99.90;;;;;;5111470;28;20032;-69
2021/12/25 11:08:20;;;;;;;8.35;5.97;;;5.70;99.90;;;;;;5112136;28;20019;-68
2021/12/25 11:11:05;;;;;;;6.90;6.13;;;5.70;99.90;;;;;;5111705;28;20431;-68
2021/12/25 11:13:34;;;;;;;8.55;6.78;;;5.70;99.90;;;;;;5119850;28;20046;-69
2021/12/25 11:16:27;;;;;;;7.53;6.43;;;5.70;99.90;;;;;;5132591;28;20031;-69
2021/12/25 11:19:04;;;;;;;7.25;6.10;;;5.60;99.90;;;;;;5132623;28;20027;-69
2021/12/25 11:21:38;;;;;;;6.70;5.95;;;5.60;99.90;;;;;;5132676;27;20107;-69
2021/12/25 11:24:25;;;;;;;7.20;6.50;;;5.50;99.90;;;;;;5134735;27;20523;-68
2021/12/25 11:26:58;;;;;;;6.32;5.70;;;5.50;99.90;;;;;;5135439;27;20441;-69
2021/12/25 11:29:27;;;;;;;8.57;6.40;;;5.50;99.90;;;;;;5135626;27;20098;-69
2021/12/25 11:31:54;;;;;;;7.10;6.40;;;5.40;99.90;;;;;;5136448;27;20093;-69
2021/12/25 11:34:21;;;;;;;6.95;6.05;;;5.40;99.90;;;;;;5135764;27;20076;-69
2021/12/25 11:36:50;;;;;;;7.53;6.32;;;5.40;99.90;;;;;;5136195;27;20031;-70
2021/12/25 11:39:17;;;;;;;11.13;6.43;;;5.40;99.90;;;;;;5135740;27;20030;-69
2021/12/25 11:41:44;;;;;;;8.15;7.35;;;5.30;99.90;;;;;;5135941;27;20513;-68
2021/12/25 11:44:41;;;;;;;9.45;6.93;;;5.30;99.90;;;;;;5135585;27;20456;-68
2021/12/25 11:47:11;;;;;;;9.63;7.00;;;5.20;99.90;;;;;;5135646;27;20126;-68
2021/12/25 11:49:54;;;;;;;8.55;7.45;;;5.20;99.90;;;;;;5136038;27;20052;-69
2021/12/25 11:52:23;;;;;;;9.05;7.70;;;5.20;99.90;;;;;;5135125;27;20563;-68
2021/12/25 11:55:15;;;;;;;8.05;7.25;;;5.20;99.90;;;;;;5136054;27;20027;-69
2021/12/25 11:57:58;;;;;;;8.43;7.18;;;5.20;99.90;;;;;;5136113;27;20019;-69
2021/12/25 12:00:37;;;;;;;9.23;7.75;;;5.10;99.90;;;;;;5135339;27;20056;-69
2021/12/25 12:03:04;;;;;;;8.93;8.05;;;5.10;99.90;;;;;;5135570;27;20042;-69
2021/12/25 12:05:32;;;;;;;8.90;8.00;;;5.10;99.90;;;;;;5135524;27;20027;-68
2021/12/25 12:08:10;;;;;;;9.82;8.77;;;5.10;99.90;;;;;;5135896;27;20088;-68
2021/12/25 12:10:45;;;;;;;10.20;8.45;;;5.10;99.90;;;;;;5135494;27;20039;-69
2021/12/25 12:13:25;;;;;;;10.32;9.23;;;5.10;99.90;;;;;;5135011;27;20038;-68
2021/12/25 12:15:54;;;;;;;12.07;9.10;;;5.10;99.90;;;;;;5125898;27;20432;-69
2021/12/25 12:18:33;;;;;;;10.70;9.07;;;5.10;99.90;;;;;;5114274;28;20023;-69
2021/12/25 12:21:18;;;;;;;10.00;8.23;;;5.10;99.90;;;;;;5115043;28;20105;-69
2021/12/25 12:26:50;;;;;;;7.80;6.97;;;5.00;99.90;;;;;;5114384;28;20035;-69
2021/12/25 12:29:38;;;;;;;8.27;7.45;;;5.00;99.90;;;;;;5114279;28;20027;-68
2021/12/25 12:32:04;;;;;;;8.40;7.53;;;4.90;99.90;;;;;;5114440;28;20031;-70
2021/12/25 12:34:30;;;;;;;8.60;7.70;;;4.90;99.90;;;;;;5113908;28;20540;-69
2021/12/25 12:37:13;;;;;;;9.32;7.72;;;4.90;99.90;;;;;;5096498;28;20027;-69
2021/12/25 12:39:55;;;;;;;8.57;7.70;;;4.80;99.90;;;;;;5114457;28;20495;-69
2021/12/25 12:42:46;;;;;;;9.40;8.10;;;4.80;99.90;;;;;;5114027;28;20531;-68
2021/12/25 12:45:35;;;;;;;9.57;8.57;;;4.80;99.90;;;;;;5113659;28;20056;-69
2021/12/25 12:48:22;;;;;;;10.50;8.63;;;4.80;99.90;;;;;;5114357;28;20031;-69
2021/12/25 12:50:51;;;;;;;9.30;8.30;;;4.70;99.90;;;;;;5114401;28;20066;-69
2021/12/25 12:53:18;;;;;;;9.68;8.40;;;4.70;99.90;;;;;;5113382;28;20026;-68
2021/12/25 12:55:47;;;;;;;10.40;8.52;;;4.70;99.90;;;;;;5114153;28;20422;-69
2021/12/25 12:58:18;;;;;;;9.30;8.30;;;4.60;99.90;;;;;;5113435;28;20030;-68
2021/12/25 13:00:48;;;;;;;9.27;8.37;;;4.60;99.90;;;;;;5114262;28;20051;-69
2021/12/25 13:03:15;;;;;;;8.77;7.88;;;4.50;99.90;;;;;;5095280;28;20348;-67
2021/12/25 13:05:47;;;;;;;10.00;8.30;;;4.50;99.90;;;;;;5114091;28;20031;-69
2021/12/25 13:08:20;;;;;;;9.73;8.60;;;4.40;99.90;;;;;;5113371;28;20107;-69
2021/12/25 13:13:30;;;;;;;8.63;7.45;;;4.40;99.90;;;;;;5113269;28;20019;-68
2021/12/25 13:16:01;;;;;;;10.23;8.50;;;4.40;99.90;;;;;;5125101;27;20030;-69
2021/12/25 13:18:38;;;;;;;9.25;8.35;;;4.30;99.90;;;;;;5133617;27;20039;-70
2021/12/25 13:21:14;;;;;;;8.88;7.97;;;4.30;99.90;;;;;;5134119;27;20031;-69
2021/12/25 13:23:56;;;;;;;9.40;8.23;;;4.30;99.90;;;;;;5133981;27;20513;-69
2021/12/25 13:26:34;;;;;;;8.73;7.85;;;4.30;99.90;;;;;;5133652;27;20023;-68
2021/12/25 13:29:09;;;;;;;9.55;8.52;;;4.30;99.90;;;;;;5134175;27;20175;-69
2021/12/25 13:31:38;;;;;;;9.48;8.02;;;4.20;99.90;;;;;;5133163;27;20613;-69
2021/12/25 13:34:11;;;;;;;9.30;8.30;;;4.10;99.90;;;;;;5133942;27;20023;-69
2021/12/25 13:36:39;;;;;;;9.20;8.18;;;4.10;99.90;;;;;;5133949;27;20049;-69
2021/12/25 13:39:16;;;;;;;10.13;8.63;;;4.00;99.90;;;;;;5133873;27;20097;-68
2021/12/25 13:41:52;;;;;;;10.20;8.70;;;3.90;99.90;;;;;;5133495;27;20045;-69
2021/12/25 13:44:29;;;;;;;11.07;8.80;;;3.90;99.90;;;;;;5133067;27;20019;-69
2021/12/25 13:47:15;;;;;;;9.95;8.93;;;3.80;99.90;;;;;;5133616;27;20043;-69
2021/12/25 13:49:45;;;;;;;10.63;8.77;;;3.80;99.90;;;;;;5133584;27;20026;-69
2021/12/25 13:52:19;;;;;;;11.85;9.40;;;3.70;99.90;;;;;;5133783;27;20471;-69
2021/12/25 13:54:47;;;;;;;12.85;8.82;;;3.70;99.90;;;;;;5134154;27;20027;-69
2021/12/25 13:57:14;;;;;;;12.70;8.93;;;3.60;99.90;;;;;;5133748;27;20424;-70
2021/12/25 13:59:41;;;;;;;11.05;8.43;;;3.60;99.90;;;;;;5133538;27;20066;-69
2021/12/25 14:02:11;;;;;;;11.07;8.95;;;3.50;99.90;;;;;;5133385;27;20023;-69
2021/12/25 14:04:40;;;;;;;11.52;8.90;;;3.50;99.90;;;;;;5132829;27;20103;-69
2021/12/25 14:07:06;;;;;;;10.75;9.65;;;3.40;99.90;;;;;;5133334;27;20503;-69
2021/12/25 14:09:33;;;;;;;10.20;8.77;;;3.40;99.90;;;;;;5132838;27;20023;-70
2021/12/25 14:11:59;;;;;;;10.95;9.70;;;3.40;99.90;;;;;;5132914;27;20039;-69
2021/12/25 14:14:28;;;;;;;13.30;9.50;;;3.40;99.90;;;;;;5114179;27;20027;-69
2021/12/25 14:16:55;;;;;;;10.07;8.95;;;3.40;99.90;;;;;;5133392;27;20019;-68
2021/12/25 14:19:26;;;;;;;11.20;8.80;;;3.40;99.90;;;;;;5132566;27;20110;-68
2021/12/25 14:21:59;;;;;;;;;;;3.40;99.90;;;;;;5131297;27;20047;-69
2021/12/25 14:24:25;;;;;;;11.68;8.75;;;3.30;99.90;;;;;;5111857;28;20000;-69